sensor_id;sensor_type;location;lat;lon;timestamp;pressure;altitude;pressure_sealevel;temperature;humidity
84188;BME280;74316;45.648;13.764;2024-01-30T00:00:32;103564.19;;;19.80;56.32
84188;BME280;74316;45.648;13.764;2024-01-30T00:02:58;103558.13;;;19.78;56.36
84188;BME280;74316;45.648;13.764;2024-01-30T00:05:25;103548.41;;;19.77;56.38
84188;BME280;74316;45.648;13.764;2024-01-30T00:07:51;103551.22;;;19.76;55.90
84188;BME280;74316;45.648;13.764;2024-01-30T00:10:17;103561.09;;;19.75;56.49
84188;BME280;74316;45.648;13.764;2024-01-30T00:12:43;103557.72;;;19.73;56.16
84188;BME280;74316;45.648;13.764;2024-01-30T00:15:09;103561.38;;;19.72;56.89
84188;BME280;74316;45.648;13.764;2024-01-30T00:17:38;103565.88;;;19.72;56.46
84188;BME280;74316;45.648;13.764;2024-01-30T00:20:06;103559.66;;;19.71;56.56
84188;BME280;74316;45.648;13.764;2024-01-30T00:22:34;103561.66;;;19.69;56.58
84188;BME280;74316;45.648;13.764;2024-01-30T00:25:00;103560.81;;;19.69;56.73
84188;BME280;74316;45.648;13.764;2024-01-30T00:27:28;103560.94;;;19.67;56.80
84188;BME280;74316;45.648;13.764;2024-01-30T00:29:54;103562.78;;;19.67;56.42
84188;BME280;74316;45.648;13.764;2024-01-30T00:32:21;103559.41;;;19.65;56.39
84188;BME280;74316;45.648;13.764;2024-01-30T00:34:48;103553.22;;;19.64;56.07
84188;BME280;74316;45.648;13.764;2024-01-30T00:37:14;103558.72;;;19.63;56.12
84188;BME280;74316;45.648;13.764;2024-01-30T00:39:40;103553.47;;;19.61;56.00
84188;BME280;74316;45.648;13.764;2024-01-30T00:42:06;103562.50;;;19.60;55.98
84188;BME280;74316;45.648;13.764;2024-01-30T00:44:35;103558.13;;;19.59;56.45
84188;BME280;74316;45.648;13.764;2024-01-30T00:47:01;103561.78;;;19.58;56.32
84188;BME280;74316;45.648;13.764;2024-01-30T00:49:28;103555.72;;;19.56;56.76
84188;BME280;74316;45.648;13.764;2024-01-30T00:51:54;103553.06;;;19.56;56.04
84188;BME280;74316;45.648;13.764;2024-01-30T00:54:19;103555.84;;;19.54;56.32
84188;BME280;74316;45.648;13.764;2024-01-30T00:56:45;103556.00;;;19.53;56.13
84188;BME280;74316;45.648;13.764;2024-01-30T00:59:11;103551.63;;;19.52;56.22
84188;BME280;74316;45.648;13.764;2024-01-30T01:01:37;103558.91;;;19.50;56.46
84188;BME280;74316;45.648;13.764;2024-01-30T01:04:03;103549.19;;;19.49;56.46
84188;BME280;74316;45.648;13.764;2024-01-30T01:06:29;103548.50;;;19.47;56.18
84188;BME280;74316;45.648;13.764;2024-01-30T01:08:56;103551.19;;;19.47;55.98
84188;BME280;74316;45.648;13.764;2024-01-30T01:11:22;103543.28;;;19.45;56.30
84188;BME280;74316;45.648;13.764;2024-01-30T01:13:48;103548.78;;;19.44;57.01
84188;BME280;74316;45.648;13.764;2024-01-30T01:16:14;103546.13;;;19.44;56.96
84188;BME280;74316;45.648;13.764;2024-01-30T01:18:39;103546.25;;;19.42;56.53
84188;BME280;74316;45.648;13.764;2024-01-30T01:21:05;103545.41;;;19.42;56.43
84188;BME280;74316;45.648;13.764;2024-01-30T01:23:32;103541.88;;;19.41;56.73
84188;BME280;74316;45.648;13.764;2024-01-30T01:25:58;103541.00;;;19.41;56.81
84188;BME280;74316;45.648;13.764;2024-01-30T01:28:25;103542.00;;;19.40;56.23
84188;BME280;74316;45.648;13.764;2024-01-30T01:30:50;103537.63;;;19.39;56.64
84188;BME280;74316;45.648;13.764;2024-01-30T01:33:30;103537.78;;;19.37;56.23
84188;BME280;74316;45.648;13.764;2024-01-30T01:36:23;103528.91;;;19.37;57.16
84188;BME280;74316;45.648;13.764;2024-01-30T01:38:49;103528.06;;;19.36;56.60
84188;BME280;74316;45.648;13.764;2024-01-30T01:41:16;103521.16;;;19.34;56.82
84188;BME280;74316;45.648;13.764;2024-01-30T01:43:43;103522.16;;;19.33;56.94
84188;BME280;74316;45.648;13.764;2024-01-30T01:46:09;103520.47;;;19.32;57.56
84188;BME280;74316;45.648;13.764;2024-01-30T01:48:35;103519.63;;;19.31;56.97
84188;BME280;74316;45.648;13.764;2024-01-30T01:51:01;103516.06;;;19.31;56.59
84188;BME280;74316;45.648;13.764;2024-01-30T01:53:28;103513.38;;;19.31;56.97
84188;BME280;74316;45.648;13.764;2024-01-30T01:55:54;103519.72;;;19.29;57.44
84188;BME280;74316;45.648;13.764;2024-01-30T01:58:21;103516.22;;;19.29;56.82
84188;BME280;74316;45.648;13.764;2024-01-30T02:00:47;103511.84;;;19.28;56.88
84188;BME280;74316;45.648;13.764;2024-01-30T02:03:13;103512.00;;;19.26;56.76
84188;BME280;74316;45.648;13.764;2024-01-30T02:05:41;103513.69;;;19.27;57.07
84188;BME280;74316;45.648;13.764;2024-01-30T02:08:08;103511.16;;;19.26;57.03
84188;BME280;74316;45.648;13.764;2024-01-30T02:10:34;103510.31;;;19.25;57.73
84188;BME280;74316;45.648;13.764;2024-01-30T02:13:00;103519.31;;;19.24;57.28
84188;BME280;74316;45.648;13.764;2024-01-30T02:15:28;103514.94;;;19.23;56.92
84188;BME280;74316;45.648;13.764;2024-01-30T02:17:54;103514.94;;;19.23;57.60
84188;BME280;74316;45.648;13.764;2024-01-30T02:20:21;103506.06;;;19.23;57.43
84188;BME280;74316;45.648;13.764;2024-01-30T02:22:48;103508.91;;;19.21;57.15
84188;BME280;74316;45.648;13.764;2024-01-30T02:25:14;103508.91;;;19.21;56.99
84188;BME280;74316;45.648;13.764;2024-01-30T02:27:41;103507.19;;;19.20;57.44
84188;BME280;74316;45.648;13.764;2024-01-30T02:30:07;103507.19;;;19.20;57.36
84188;BME280;74316;45.648;13.764;2024-01-30T02:32:34;103507.19;;;19.20;57.00
84188;BME280;74316;45.648;13.764;2024-01-30T02:34:59;103504.66;;;19.19;56.79
84188;BME280;74316;45.648;13.764;2024-01-30T02:37:25;103501.13;;;19.18;57.20
84188;BME280;74316;45.648;13.764;2024-01-30T02:39:52;103505.50;;;19.19;57.66
84188;BME280;74316;45.648;13.764;2024-01-30T02:42:17;103506.47;;;19.18;57.02
84188;BME280;74316;45.648;13.764;2024-01-30T02:44:43;103502.13;;;19.17;57.49
84188;BME280;74316;45.648;13.764;2024-01-30T02:47:09;103500.41;;;19.16;57.92
84188;BME280;74316;45.648;13.764;2024-01-30T02:49:35;103495.06;;;19.16;57.61
84188;BME280;74316;45.648;13.764;2024-01-30T02:52:01;103498.72;;;19.15;57.07
84188;BME280;74316;45.648;13.764;2024-01-30T02:54:27;103499.72;;;19.14;57.52
84188;BME280;74316;45.648;13.764;2024-01-30T02:56:52;103501.56;;;19.14;57.75
84188;BME280;74316;45.648;13.764;2024-01-30T02:59:18;103501.56;;;19.14;57.41
84188;BME280;74316;45.648;13.764;2024-01-30T03:01:44;103498.03;;;19.13;57.42
84188;BME280;74316;45.648;13.764;2024-01-30T03:04:10;103496.19;;;19.14;57.47
84188;BME280;74316;45.648;13.764;2024-01-30T03:06:37;103496.34;;;19.12;57.63
84188;BME280;74316;45.648;13.764;2024-01-30T03:09:03;103499.03;;;19.12;56.99
84188;BME280;74316;45.648;13.764;2024-01-30T03:11:30;103497.34;;;19.11;56.65
84188;BME280;74316;45.648;13.764;2024-01-30T03:13:56;103500.13;;;19.10;57.48
84188;BME280;74316;45.648;13.764;2024-01-30T03:16:22;103494.75;;;19.10;57.97
84188;BME280;74316;45.648;13.764;2024-01-30T03:18:52;103503.78;;;19.09;57.26
84188;BME280;74316;45.648;13.764;2024-01-30T03:21:17;103500.25;;;19.08;57.58
84188;BME280;74316;45.648;13.764;2024-01-30T03:23:44;103502.09;;;19.08;57.43
84188;BME280;74316;45.648;13.764;2024-01-30T03:26:11;103498.56;;;19.07;57.72
84188;BME280;74316;45.648;13.764;2024-01-30T03:28:37;103499.41;;;19.08;57.62
84188;BME280;74316;45.648;13.764;2024-01-30T03:31:04;103488.00;;;19.06;57.11
84188;BME280;74316;45.648;13.764;2024-01-30T03:33:30;103492.53;;;19.05;57.92
84188;BME280;74316;45.648;13.764;2024-01-30T03:35:56;103490.84;;;19.04;57.75
84188;BME280;74316;45.648;13.764;2024-01-30T03:38:25;103487.16;;;19.05;57.72
84188;BME280;74316;45.648;13.764;2024-01-30T03:40:52;103494.50;;;19.03;57.55
84188;BME280;74316;45.648;13.764;2024-01-30T03:43:18;103489.16;;;19.03;57.42
84188;BME280;74316;45.648;13.764;2024-01-30T03:45:43;103492.81;;;19.02;57.76
84188;BME280;74316;45.648;13.764;2024-01-30T03:48:10;103487.44;;;19.02;57.81
84188;BME280;74316;45.648;13.764;2024-01-30T03:50:36;103491.97;;;19.02;57.95
84188;BME280;74316;45.648;13.764;2024-01-30T03:53:04;103485.03;;;18.99;57.83
84188;BME280;74316;45.648;13.764;2024-01-30T03:55:30;103492.06;;;19.00;57.60
84188;BME280;74316;45.648;13.764;2024-01-30T03:57:57;103494.75;;;19.00;57.99
84188;BME280;74316;45.648;13.764;2024-01-30T04:00:23;103490.38;;;18.99;57.66
84188;BME280;74316;45.648;13.764;2024-01-30T04:02:48;103488.69;;;18.98;57.28
84188;BME280;74316;45.648;13.764;2024-01-30T04:05:14;103484.34;;;18.97;57.77
84188;BME280;74316;45.648;13.764;2024-01-30T04:07:41;103484.34;;;18.97;57.30
84188;BME280;74316;45.648;13.764;2024-01-30T04:10:07;103484.34;;;18.97;57.97
84188;BME280;74316;45.648;13.764;2024-01-30T04:12:33;103481.78;;;18.95;57.90
84188;BME280;74316;45.648;13.764;2024-01-30T04:15:00;103479.25;;;18.94;57.94
84188;BME280;74316;45.648;13.764;2024-01-30T04:17:26;103480.97;;;18.95;57.87
84188;BME280;74316;45.648;13.764;2024-01-30T04:19:54;103486.44;;;18.93;57.39
84188;BME280;74316;45.648;13.764;2024-01-30T04:22:20;103476.59;;;18.94;57.79
84188;BME280;74316;45.648;13.764;2024-01-30T04:24:46;103476.72;;;18.92;57.55
84188;BME280;74316;45.648;13.764;2024-01-30T04:27:12;103481.25;;;18.92;57.69
84188;BME280;74316;45.648;13.764;2024-01-30T04:29:38;103484.91;;;18.91;57.49
84188;BME280;74316;45.648;13.764;2024-01-30T04:32:04;103484.91;;;18.91;58.06
84188;BME280;74316;45.648;13.764;2024-01-30T04:34:29;103477.84;;;18.90;57.46
84188;BME280;74316;45.648;13.764;2024-01-30T04:36:55;103490.25;;;18.91;57.69
84188;BME280;74316;45.648;13.764;2024-01-30T04:39:21;103482.47;;;18.88;57.58
84188;BME280;74316;45.648;13.764;2024-01-30T04:41:46;103481.63;;;18.87;57.72
84188;BME280;74316;45.648;13.764;2024-01-30T04:44:13;103490.50;;;18.88;57.42
84188;BME280;74316;45.648;13.764;2024-01-30T04:46:39;103490.50;;;18.88;58.10
84188;BME280;74316;45.648;13.764;2024-01-30T04:49:05;103495.84;;;18.88;57.67
84188;BME280;74316;45.648;13.764;2024-01-30T04:51:33;103488.81;;;18.87;57.50
84188;BME280;74316;45.648;13.764;2024-01-30T04:53:59;103491.63;;;18.85;57.81
84188;BME280;74316;45.648;13.764;2024-01-30T04:56:25;103501.50;;;18.85;57.86
84188;BME280;74316;45.648;13.764;2024-01-30T04:58:52;103492.63;;;18.84;57.56
84188;BME280;74316;45.648;13.764;2024-01-30T05:01:18;103503.31;;;18.84;57.54
84188;BME280;74316;45.648;13.764;2024-01-30T05:03:44;103497.13;;;18.84;57.92
84188;BME280;74316;45.648;13.764;2024-01-30T05:06:10;103485.44;;;18.85;57.42
84188;BME280;74316;45.648;13.764;2024-01-30T05:08:36;103501.63;;;18.83;57.46
84188;BME280;74316;45.648;13.764;2024-01-30T05:11:05;103500.63;;;18.84;57.59
84188;BME280;74316;45.648;13.764;2024-01-30T05:13:31;103501.50;;;18.85;57.68
84188;BME280;74316;45.648;13.764;2024-01-30T05:15:57;103495.84;;;18.88;57.43
84188;BME280;74316;45.648;13.764;2024-01-30T05:18:25;103496.56;;;18.90;57.11
84188;BME280;74316;45.648;13.764;2024-01-30T05:20:50;103499.97;;;18.92;57.37
84188;BME280;74316;45.648;13.764;2024-01-30T05:23:17;103498.97;;;18.93;57.40
84188;BME280;74316;45.648;13.764;2024-01-30T05:25:43;103503.19;;;18.95;57.44
84188;BME280;74316;45.648;13.764;2024-01-30T05:28:08;103500.38;;;18.97;57.43
84188;BME280;74316;45.648;13.764;2024-01-30T05:30:34;103493.06;;;18.99;57.40
84188;BME280;74316;45.648;13.764;2024-01-30T05:33:00;103504.34;;;19.03;57.38
84188;BME280;74316;45.648;13.764;2024-01-30T05:35:26;103506.88;;;19.04;56.88
84188;BME280;74316;45.648;13.764;2024-01-30T05:37:52;103501.25;;;19.07;57.23
84188;BME280;74316;45.648;13.764;2024-01-30T05:40:18;103504.63;;;19.09;57.09
84188;BME280;74316;45.648;13.764;2024-01-30T05:42:43;103503.38;;;19.13;57.20
84188;BME280;74316;45.648;13.764;2024-01-30T05:45:09;103503.25;;;19.15;57.36
84188;BME280;74316;45.648;13.764;2024-01-30T05:47:35;103511.69;;;19.20;56.97
84188;BME280;74316;45.648;13.764;2024-01-30T05:50:01;103517.63;;;19.23;56.99
84188;BME280;74316;45.648;13.764;2024-01-30T05:52:28;103517.34;;;19.26;57.43
84188;BME280;74316;45.648;13.764;2024-01-30T05:54:54;103519.63;;;19.31;56.72
84188;BME280;74316;45.648;13.764;2024-01-30T05:57:21;103521.88;;;19.36;57.20
84188;BME280;74316;45.648;13.764;2024-01-30T05:59:46;103532.28;;;19.39;56.66
84188;BME280;74316;45.648;13.764;2024-01-30T06:02:13;103528.38;;;19.43;56.86
84188;BME280;74316;45.648;13.764;2024-01-30T06:04:39;103527.09;;;19.47;56.41
84188;BME280;74316;45.648;13.764;2024-01-30T06:07:05;103532.88;;;19.52;56.59
84188;BME280;74316;45.648;13.764;2024-01-30T06:09:31;103532.59;;;19.55;56.92
84188;BME280;74316;45.648;13.764;2024-01-30T06:12:12;103535.72;;;19.60;56.54
84188;BME280;74316;45.648;13.764;2024-01-30T06:14:37;103528.41;;;19.62;56.32
84188;BME280;74316;45.648;13.764;2024-01-30T06:17:03;103529.09;;;19.64;56.81
84188;BME280;74316;45.648;13.764;2024-01-30T06:19:29;103527.81;;;19.68;56.49
84188;BME280;74316;45.648;13.764;2024-01-30T06:21:55;103532.88;;;19.71;56.99
84188;BME280;74316;45.648;13.764;2024-01-30T06:24:23;103527.25;;;19.74;57.07
84188;BME280;74316;45.648;13.764;2024-01-30T06:26:49;103525.28;;;19.76;56.17
84188;BME280;74316;45.648;13.764;2024-01-30T06:29:15;103534.00;;;19.78;56.74
84188;BME280;74316;45.648;13.764;2024-01-30T06:31:42;103536.56;;;19.80;55.69
84188;BME280;74316;45.648;13.764;2024-01-30T06:34:08;103540.91;;;19.81;56.14
84188;BME280;74316;45.648;13.764;2024-01-30T06:36:34;103547.84;;;19.83;55.98
84188;BME280;74316;45.648;13.764;2024-01-30T06:39:00;103549.53;;;19.84;56.29
84188;BME280;74316;45.648;13.764;2024-01-30T06:41:26;103551.91;;;19.88;56.66
84188;BME280;74316;45.648;13.764;2024-01-30T06:43:53;103556.44;;;19.87;56.84
84188;BME280;74316;45.648;13.764;2024-01-30T06:46:19;103557.97;;;19.90;56.90
84188;BME280;74316;45.648;13.764;2024-01-30T06:48:45;103553.47;;;19.90;56.39
84188;BME280;74316;45.648;13.764;2024-01-30T06:51:11;103558.97;;;19.89;57.01
84188;BME280;74316;45.648;13.764;2024-01-30T06:53:38;103565.31;;;19.88;56.14
84188;BME280;74316;45.648;13.764;2024-01-30T06:56:04;103559.25;;;19.85;56.43
84188;BME280;74316;45.648;13.764;2024-01-30T06:58:30;103573.50;;;19.86;56.16
84188;BME280;74316;45.648;13.764;2024-01-30T07:00:56;103564.63;;;19.85;56.15
84188;BME280;74316;45.648;13.764;2024-01-30T07:03:22;103575.19;;;19.87;55.87
84188;BME280;74316;45.648;13.764;2024-01-30T07:05:48;103573.91;;;19.91;56.18
84188;BME280;74316;45.648;13.764;2024-01-30T07:08:15;103580.53;;;19.97;55.84
84188;BME280;74316;45.648;13.764;2024-01-30T07:10:43;103574.88;;;20.00;55.55
84188;BME280;74316;45.648;13.764;2024-01-30T07:13:08;103583.63;;;20.02;55.23
84188;BME280;74316;45.648;13.764;2024-01-30T07:15:35;103578.41;;;20.00;55.71
84188;BME280;74316;45.648;13.764;2024-01-30T07:18:03;103578.56;;;19.99;55.70
84188;BME280;74316;45.648;13.764;2024-01-30T07:20:30;103579.56;;;19.98;56.17
84188;BME280;74316;45.648;13.764;2024-01-30T07:22:57;103577.88;;;19.97;55.93
84188;BME280;74316;45.648;13.764;2024-01-30T07:25:23;103577.88;;;19.97;56.16
84188;BME280;74316;45.648;13.764;2024-01-30T07:27:52;103573.50;;;19.96;55.52
84188;BME280;74316;45.648;13.764;2024-01-30T07:30:21;103578.84;;;19.96;56.04
84188;BME280;74316;45.648;13.764;2024-01-30T07:32:46;103573.50;;;19.96;55.87
84188;BME280;74316;45.648;13.764;2024-01-30T07:35:13;103579.69;;;19.96;55.86
84188;BME280;74316;45.648;13.764;2024-01-30T07:37:42;103585.91;;;19.97;55.33
84188;BME280;74316;45.648;13.764;2024-01-30T07:40:10;103585.91;;;19.97;55.94
84188;BME280;74316;45.648;13.764;2024-01-30T07:42:36;103582.22;;;19.98;55.57
84188;BME280;74316;45.648;13.764;2024-01-30T07:45:03;103591.97;;;19.99;56.23
84188;BME280;74316;45.648;13.764;2024-01-30T07:47:29;103593.66;;;20.00;56.11
84188;BME280;74316;45.648;13.764;2024-01-30T07:49:54;103580.25;;;20.00;55.36
84188;BME280;74316;45.648;13.764;2024-01-30T07:52:20;103581.09;;;20.00;55.87
84188;BME280;74316;45.648;13.764;2024-01-30T07:54:49;103582.78;;;20.01;56.00
84188;BME280;74316;45.648;13.764;2024-01-30T07:57:15;103589.00;;;20.02;55.58
84188;BME280;74316;45.648;13.764;2024-01-30T07:59:44;103602.38;;;20.02;56.00
84188;BME280;74316;45.648;13.764;2024-01-30T08:02:11;103596.06;;;20.03;55.51
84188;BME280;74316;45.648;13.764;2024-01-30T08:04:37;103591.66;;;20.02;56.02
84188;BME280;74316;45.648;13.764;2024-01-30T08:07:05;103589.00;;;20.02;55.81
84188;BME280;74316;45.648;13.764;2024-01-30T08:09:31;103592.66;;;20.01;56.52
84188;BME280;74316;45.648;13.764;2024-01-30T08:11:57;103592.66;;;20.01;55.69
84188;BME280;74316;45.648;13.764;2024-01-30T08:14:23;103590.97;;;20.00;56.05
84188;BME280;74316;45.648;13.764;2024-01-30T08:16:52;103583.91;;;19.99;55.77
84188;BME280;74316;45.648;13.764;2024-01-30T08:19:17;103583.22;;;19.97;55.88
84188;BME280;74316;45.648;13.764;2024-01-30T08:21:44;103585.91;;;19.97;56.25
84188;BME280;74316;45.648;13.764;2024-01-30T08:24:09;103594.09;;;19.95;55.72
84188;BME280;74316;45.648;13.764;2024-01-30T08:26:35;103595.94;;;19.95;56.21
84188;BME280;74316;45.648;13.764;2024-01-30T08:29:01;103589.88;;;19.93;56.25
84188;BME280;74316;45.648;13.764;2024-01-30T08:31:27;103588.16;;;19.92;56.38
84188;BME280;74316;45.648;13.764;2024-01-30T08:33:53;103587.31;;;19.91;56.08
84188;BME280;74316;45.648;13.764;2024-01-30T08:36:19;103589.13;;;19.91;56.21
84188;BME280;74316;45.648;13.764;2024-01-30T08:38:45;103591.97;;;19.89;56.13
84188;BME280;74316;45.648;13.764;2024-01-30T08:41:11;103588.44;;;19.89;56.36
84188;BME280;74316;45.648;13.764;2024-01-30T08:43:37;103584.22;;;19.86;56.80
84188;BME280;74316;45.648;13.764;2024-01-30T08:46:04;103583.38;;;19.85;56.52
84188;BME280;74316;45.648;13.764;2024-01-30T08:48:29;103586.19;;;19.84;56.47
84188;BME280;74316;45.648;13.764;2024-01-30T08:50:56;103581.69;;;19.84;56.29
84188;BME280;74316;45.648;13.764;2024-01-30T08:53:21;103589.03;;;19.82;56.95
84188;BME280;74316;45.648;13.764;2024-01-30T08:55:47;103582.78;;;19.82;55.88
84188;BME280;74316;45.648;13.764;2024-01-30T08:58:13;103581.94;;;19.81;56.00
84188;BME280;74316;45.648;13.764;2024-01-30T09:00:40;103584.78;;;19.80;56.36
84188;BME280;74316;45.648;13.764;2024-01-30T09:03:06;103578.56;;;19.79;56.46
84188;BME280;74316;45.648;13.764;2024-01-30T09:05:32;103582.25;;;19.78;56.54
84188;BME280;74316;45.648;13.764;2024-01-30T09:08:00;103587.59;;;19.78;56.25
84188;BME280;74316;45.648;13.764;2024-01-30T09:10:25;103585.91;;;19.77;56.57
84188;BME280;74316;45.648;13.764;2024-01-30T09:12:51;103586.91;;;19.76;56.37
84188;BME280;74316;45.648;13.764;2024-01-30T09:15:17;103587.88;;;19.75;55.95
84188;BME280;74316;45.648;13.764;2024-01-30T09:17:44;103593.25;;;19.75;56.75
84188;BME280;74316;45.648;13.764;2024-01-30T09:20:11;103591.56;;;19.74;56.98
84188;BME280;74316;45.648;13.764;2024-01-30T09:22:38;103588.19;;;19.72;56.54
84188;BME280;74316;45.648;13.764;2024-01-30T09:25:04;103593.53;;;19.72;56.25
84188;BME280;74316;45.648;13.764;2024-01-30T09:27:35;103604.25;;;19.72;56.70
84188;BME280;74316;45.648;13.764;2024-01-30T09:30:02;103603.38;;;19.72;56.14
84188;BME280;74316;45.648;13.764;2024-01-30T09:32:29;103608.88;;;19.70;56.08
84188;BME280;74316;45.648;13.764;2024-01-30T09:34:55;103603.66;;;19.69;56.78
84188;BME280;74316;45.648;13.764;2024-01-30T09:37:21;103600.97;;;19.69;56.37
84188;BME280;74316;45.648;13.764;2024-01-30T09:39:46;103607.31;;;19.68;55.98
84188;BME280;74316;45.648;13.764;2024-01-30T09:42:33;103618.03;;;19.68;56.44
84188;BME280;74316;45.648;13.764;2024-01-30T09:45:19;103612.81;;;19.66;56.40
84188;BME280;74316;45.648;13.764;2024-01-30T09:47:45;103613.81;;;19.65;56.27
84188;BME280;74316;45.648;13.764;2024-01-30T09:50:12;103617.47;;;19.64;56.41
84188;BME280;74316;45.648;13.764;2024-01-30T09:52:39;103621.16;;;19.63;56.46
84188;BME280;74316;45.648;13.764;2024-01-30T09:55:06;103614.09;;;19.62;56.75
84188;BME280;74316;45.648;13.764;2024-01-30T09:57:34;103620.41;;;19.61;56.48
84188;BME280;74316;45.648;13.764;2024-01-30T10:00:00;103615.06;;;19.61;56.33
84188;BME280;74316;45.648;13.764;2024-01-30T10:02:26;103616.06;;;19.60;56.12
84188;BME280;74316;45.648;13.764;2024-01-30T10:04:52;103609.00;;;19.59;56.60
84188;BME280;74316;45.648;13.764;2024-01-30T10:07:18;103611.69;;;19.59;56.56
84188;BME280;74316;45.648;13.764;2024-01-30T10:09:44;103610.00;;;19.58;56.48
84188;BME280;74316;45.648;13.764;2024-01-30T10:12:10;103602.09;;;19.56;56.11
84188;BME280;74316;45.648;13.764;2024-01-30T10:14:40;103603.94;;;19.56;56.33
84188;BME280;74316;45.648;13.764;2024-01-30T10:17:08;103596.84;;;19.55;56.41
84188;BME280;74316;45.648;13.764;2024-01-30T10:19:33;103596.00;;;19.54;56.18
84188;BME280;74316;45.648;13.764;2024-01-30T10:22:03;103591.66;;;19.53;56.33
84188;BME280;74316;45.648;13.764;2024-01-30T10:24:30;103594.47;;;19.52;56.40
84188;BME280;74316;45.648;13.764;2024-01-30T10:26:56;103588.38;;;19.50;56.25
84188;BME280;74316;45.648;13.764;2024-01-30T10:29:22;103587.53;;;19.49;56.20
84188;BME280;74316;45.648;13.764;2024-01-30T10:32:01;103579.66;;;19.48;56.04
84188;BME280;74316;45.648;13.764;2024-01-30T10:34:27;103583.31;;;19.47;56.54
84188;BME280;74316;45.648;13.764;2024-01-30T10:39:31;103583.31;;;19.47;56.18
84188;BME280;74316;45.648;13.764;2024-01-30T10:42:04;103578.94;;;19.46;56.24
84188;BME280;74316;45.648;13.764;2024-01-30T10:44:39;103579.94;;;19.45;56.13
84188;BME280;74316;45.648;13.764;2024-01-30T10:47:26;103584.28;;;19.46;56.27
84188;BME280;74316;45.648;13.764;2024-01-30T10:49:52;103574.56;;;19.45;56.13
84188;BME280;74316;45.648;13.764;2024-01-30T10:52:20;103579.94;;;19.45;56.40
84188;BME280;74316;45.648;13.764;2024-01-30T10:54:46;103579.94;;;19.45;56.50
84188;BME280;74316;45.648;13.764;2024-01-30T10:57:14;103576.41;;;19.44;56.16
84188;BME280;74316;45.648;13.764;2024-01-30T10:59:41;103569.22;;;19.45;56.26
84188;BME280;74316;45.648;13.764;2024-01-30T11:02:08;103572.75;;;19.45;56.67
84188;BME280;74316;45.648;13.764;2024-01-30T11:04:38;103566.41;;;19.46;56.22
84188;BME280;74316;45.648;13.764;2024-01-30T11:07:24;103567.25;;;19.47;56.32
84188;BME280;74316;45.648;13.764;2024-01-30T11:09:59;103564.56;;;19.47;56.09
84188;BME280;74316;45.648;13.764;2024-01-30T11:12:29;103561.88;;;19.47;56.14
84188;BME280;74316;45.648;13.764;2024-01-30T11:15:09;103559.06;;;19.48;56.43
84188;BME280;74316;45.648;13.764;2024-01-30T11:20:20;103553.31;;;19.53;56.03
84188;BME280;74316;45.648;13.764;2024-01-30T11:22:47;103548.66;;;19.55;56.18
84188;BME280;74316;45.648;13.764;2024-01-30T11:25:15;103546.56;;;19.59;55.95
84188;BME280;74316;45.648;13.764;2024-01-30T11:27:42;103546.41;;;19.60;55.87
84188;BME280;74316;45.648;13.764;2024-01-30T11:30:08;103540.81;;;19.63;55.48
84188;BME280;74316;45.648;13.764;2024-01-30T11:32:34;103541.34;;;19.67;55.79
84188;BME280;74316;45.648;13.764;2024-01-30T11:35:03;103547.25;;;19.70;55.84
84188;BME280;74316;45.648;13.764;2024-01-30T11:37:30;103537.97;;;19.74;55.88
84188;BME280;74316;45.648;13.764;2024-01-30T11:39:58;103533.16;;;19.78;55.44
84188;BME280;74316;45.648;13.764;2024-01-30T11:42:24;103532.75;;;19.82;55.51
84188;BME280;74316;45.648;13.764;2024-01-30T11:44:53;103527.94;;;19.86;55.25
84188;BME280;74316;45.648;13.764;2024-01-30T11:47:18;103527.50;;;19.91;55.16
84188;BME280;74316;45.648;13.764;2024-01-30T11:49:44;103518.22;;;19.95;55.67
84188;BME280;74316;45.648;13.764;2024-01-30T11:52:10;103522.13;;;20.00;54.94
84188;BME280;74316;45.648;13.764;2024-01-30T11:54:39;103522.72;;;20.04;55.06
84188;BME280;74316;45.648;13.764;2024-01-30T11:57:05;103511.69;;;20.07;54.85
84188;BME280;74316;45.648;13.764;2024-01-30T11:59:31;103514.09;;;20.10;55.32
84188;BME280;74316;45.648;13.764;2024-01-30T12:01:57;103516.50;;;20.13;54.52
84188;BME280;74316;45.648;13.764;2024-01-30T12:04:28;103510.00;;;20.16;54.70
84188;BME280;74316;45.648;13.764;2024-01-30T12:06:54;103513.38;;;20.18;55.24
84188;BME280;74316;45.648;13.764;2024-01-30T12:09:20;103507.84;;;20.19;55.06
84188;BME280;74316;45.648;13.764;2024-01-30T12:11:47;103500.50;;;20.21;54.95
84188;BME280;74316;45.648;13.764;2024-01-30T12:14:14;103498.66;;;20.22;55.18
84188;BME280;74316;45.648;13.764;2024-01-30T12:16:40;103496.72;;;20.24;54.65
84188;BME280;74316;45.648;13.764;2024-01-30T12:19:06;103501.91;;;20.25;55.54
84188;BME280;74316;45.648;13.764;2024-01-30T12:21:33;103494.56;;;20.27;55.31
84188;BME280;74316;45.648;13.764;2024-01-30T12:24:00;103484.69;;;20.28;54.64
84188;BME280;74316;45.648;13.764;2024-01-30T12:26:25;103482.84;;;20.28;54.56
84188;BME280;74316;45.648;13.764;2024-01-30T12:28:54;103484.97;;;20.34;55.29
84188;BME280;74316;45.648;13.764;2024-01-30T12:31:32;103472.94;;;20.38;54.77
84188;BME280;74316;45.648;13.764;2024-01-30T12:34:00;103472.63;;;20.41;55.25
84188;BME280;74316;45.648;13.764;2024-01-30T12:36:26;103470.25;;;20.38;55.30
84188;BME280;74316;45.648;13.764;2024-01-30T12:38:52;103464.19;;;20.36;54.53
84188;BME280;74316;45.648;13.764;2024-01-30T12:41:19;103463.63;;;20.42;54.79
84188;BME280;74316;45.648;13.764;2024-01-30T12:43:45;103456.31;;;20.45;54.42